Time;durP1;ratioP1;P1;durP2;ratioP2;P2;SDS_P1;SDS_P2;PMS_P1;PMS_P2;Temp;Humidity;BMP_temperature;BMP_pressure;BME280_temperature;BME280_humidity;BME280_pressure;Samples;Min_cycle;Max_cycle;Signal;HPM_P1;HPM_P2
2022/05/31 00:00:58;;;;;;;7.78;3.13;;;14.30;99.90;;;;;;4847379;29;20025;-90
2022/05/31 00:03:24;;;;;;;7.25;2.90;;;14.20;99.90;;;;;;4830213;29;20474;-88
2022/05/31 00:05:50;;;;;;;6.85;3.17;;;14.20;99.90;;;;;;4847039;29;20060;-87
2022/05/31 00:08:16;;;;;;;9.30;3.13;;;14.20;99.90;;;;;;4846292;29;20329;-89
2022/05/31 00:10:42;;;;;;;8.95;3.45;;;14.20;99.90;;;;;;4846888;29;20270;-91
2022/05/31 00:13:09;;;;;;;9.60;2.90;;;;;;;;;;4830357;29;20030;-87
2022/05/31 00:15:34;;;;;;;8.15;3.22;;;14.20;99.90;;;;;;4830864;29;20064;-91
2022/05/31 00:18:00;;;;;;;7.00;3.17;;;14.20;99.90;;;;;;4830724;29;20066;-92
2022/05/31 00:34:11;;;;;;;13.68;4.00;;;14.30;99.90;;;;;;5850798;23;20917;-90
2022/05/31 00:36:39;;;;;;;12.13;3.47;;;14.30;99.90;;;;;;4867743;29;20326;-89
2022/05/31 00:39:06;;;;;;;7.38;3.50;;;14.30;99.90;;;;;;4868281;29;20556;-91
2022/05/31 00:41:35;;;;;;;11.80;3.38;;;17.00;99.90;;;;;;4883489;29;20089;-91
2022/05/31 00:44:04;;;;;;;9.05;3.28;;;14.30;99.90;;;;;;4884944;29;20107;-87
2022/05/31 00:46:56;;;;;;;5.60;2.78;;;14.40;99.90;;;;;;4883260;29;20083;-92
2022/05/31 00:49:53;;;;;;;8.20;2.70;;;14.30;99.90;;;;;;4867934;29;20602;-91
2022/05/31 00:52:34;;;;;;;7.47;3.00;;;14.40;99.90;;;;;;4868388;29;20062;-92
2022/05/31 00:55:24;;;;;;;6.53;2.70;;;14.40;99.90;;;;;;4884651;29;20044;-92
2022/05/31 00:57:59;;;;;;;6.68;2.97;;;14.40;99.90;;;;;;4868291;29;20036;-92
2022/05/31 01:00:24;;;;;;;7.03;2.97;;;14.00;99.90;;;;;;4883223;29;20073;-86
2022/05/31 01:02:50;;;;;;;7.07;3.00;;;14.40;99.90;;;;;;4885467;29;20404;-91
2022/05/31 01:05:18;;;;;;;7.57;3.22;;;14.40;99.90;;;;;;4884380;29;20033;-86
2022/05/31 01:08:10;;;;;;;6.53;2.60;;;14.40;99.90;;;;;;4867671;29;20029;-89
2022/05/31 01:11:16;;;;;;;8.10;3.00;;;17.30;99.90;;;;;;4882486;29;20033;-89
2022/05/31 01:13:42;;;;;;;6.95;2.92;;;;;;;;;;4884549;29;20040;-91
2022/05/31 01:18:55;;;;;;;6.63;3.03;;;12.70;99.90;;;;;;4875863;23;20658;-90
2022/05/31 01:21:22;;;;;;;6.80;2.95;;;14.30;99.90;;;;;;4867057;29;20352;-91
2022/05/31 01:24:05;;;;;;;7.30;2.70;;;14.30;99.90;;;;;;4866927;29;20059;-85
2022/05/31 01:26:52;;;;;;;9.07;2.95;;;14.20;99.90;;;;;;4848277;29;20044;-89
2022/05/31 01:29:21;;;;;;;6.47;2.92;;;14.20;99.90;;;;;;4864466;29;20091;-91
2022/05/31 01:31:50;;;;;;;9.27;2.85;;;14.20;99.90;;;;;;4850240;29;20339;-90
2022/05/31 01:34:33;;;;;;;5.07;2.42;;;14.10;99.90;;;;;;4868913;29;20021;-88
2022/05/31 01:36:59;;;;;;;10.32;3.75;;;14.10;99.90;;;;;;4868628;29;20033;-90
2022/05/31 01:39:34;;;;;;;7.07;3.17;;;14.10;99.90;;;;;;4852841;29;20331;-89
2022/05/31 01:42:03;;;;;;;6.28;2.70;;;14.10;99.90;;;;;;4869218;29;20029;-91
2022/05/31 01:44:33;;;;;;;7.63;2.78;;;14.10;99.90;;;;;;4868896;29;20053;-89
2022/05/31 01:47:00;;;;;;;8.35;3.17;;;14.10;99.90;;;;;;4851881;29;20220;-90
2022/05/31 01:49:30;;;;;;;8.63;2.83;;;14.10;99.90;;;;;;4852175;29;20252;-93
2022/05/31 01:51:58;;;;;;;6.85;2.90;;;14.10;99.90;;;;;;4868036;29;20442;-87
2022/05/31 01:54:24;;;;;;;7.90;2.95;;;14.10;99.90;;;;;;4851447;29;20021;-90
2022/05/31 01:56:55;;;;;;;7.30;3.20;;;14.20;99.90;;;;;;4851901;29;20477;-92
2022/05/31 01:59:22;;;;;;;6.32;2.60;;;14.10;99.90;;;;;;4850962;29;20021;-87
2022/05/31 02:01:48;;;;;;;6.43;2.95;;;14.10;99.90;;;;;;4867720;29;20277;-86
2022/05/31 02:04:16;;;;;;;7.95;3.40;;;14.10;99.90;;;;;;4851442;29;20064;-91
2022/05/31 02:06:42;;;;;;;6.50;2.22;;;14.10;99.90;;;;;;4866731;29;20504;-86
2022/05/31 02:09:11;;;;;;;8.25;2.92;;;14.10;99.90;;;;;;4850919;29;20351;-86
2022/05/31 02:11:38;;;;;;;5.85;2.78;;;14.00;99.90;;;;;;4867834;29;20507;-91
2022/05/31 02:14:05;;;;;;;6.60;3.17;;;14.00;99.90;;;;;;4851254;29;20025;-84
2022/05/31 02:16:31;;;;;;;8.32;3.90;;;14.00;99.90;;;;;;4867312;29;20093;-91
2022/05/31 02:19:17;;;;;;;5.85;2.90;;;13.90;99.90;;;;;;4850403;29;20531;-86
2022/05/31 02:35:31;;;;;;;8.68;2.67;;;14.10;99.90;;;;;;5622796;23;20052;-88
2022/05/31 02:37:58;;;;;;;14.88;3.17;;;14.10;99.90;;;;;;4868555;29;20464;-91
2022/05/31 02:40:24;;;;;;;13.52;3.03;;;14.20;99.90;;;;;;4886226;29;20025;-91
2022/05/31 02:42:50;;;;;;;9.88;3.35;;;14.30;99.90;;;;;;4869117;29;20028;-90
2022/05/31 02:45:15;;;;;;;5.80;2.70;;;14.30;99.90;;;;;;4886083;29;20041;-88
2022/05/31 02:47:41;;;;;;;9.88;3.17;;;14.30;99.90;;;;;;4871755;29;20025;-89
2022/05/31 02:50:07;;;;;;;7.32;2.97;;;14.40;99.90;;;;;;4896756;29;20032;-90
2022/05/31 02:52:33;;;;;;;4.72;2.42;;;14.30;99.90;;;;;;4895153;29;20021;-93
2022/05/31 02:54:59;;;;;;;4.68;2.40;;;;;;;;;;4898118;29;20021;-89
2022/05/31 02:57:25;;;;;;;8.45;3.45;;;14.30;99.90;;;;;;4880387;29;20328;-87
2022/05/31 02:59:51;;;;;;;9.63;2.70;;;14.40;99.90;;;;;;4864541;29;20043;-87
2022/05/31 03:02:17;;;;;;;7.18;2.88;;;;;;;;;;4853939;29;20025;-88
2022/05/31 03:04:42;;;;;;;7.43;3.28;;;14.40;99.90;;;;;;4852658;29;20057;-92
2022/05/31 03:07:10;;;;;;;7.25;3.45;;;14.50;99.90;;;;;;4851188;29;20103;-87
2022/05/31 03:09:36;;;;;;;7.28;3.50;;;14.50;99.90;;;;;;4866084;29;20709;-87
2022/05/31 03:12:09;;;;;;;7.60;3.05;;;14.50;99.90;;;;;;4866910;29;20060;-95
2022/05/31 03:14:56;;;;;;;6.90;2.35;;;14.50;99.90;;;;;;4850700;29;20033;-89
2022/05/31 03:20:25;;;;;;;6.47;2.88;;;14.60;99.90;;;;;;4867422;29;20395;-84
2022/05/31 03:23:20;;;;;;;5.95;2.80;;;14.60;99.90;;;;;;4850302;29;20032;-90
2022/05/31 03:28:18;;;;;;;6.90;3.30;;;14.60;99.90;;;;;;4864517;29;20108;-89
2022/05/31 03:30:44;;;;;;;7.45;2.97;;;14.60;99.90;;;;;;4850315;29;20025;-88
2022/05/31 03:33:10;;;;;;;6.63;2.50;;;14.60;99.90;;;;;;4865967;29;20031;-89
2022/05/31 03:36:20;;;;;;;8.40;3.53;;;14.60;99.90;;;;;;4850520;29;20081;-92
2022/05/31 03:51:55;;;;;;;7.63;2.83;;;14.80;99.90;;;;;;5202416;23;20049;-91
2022/05/31 03:54:21;;;;;;;7.28;2.80;;;14.90;99.90;;;;;;4848699;29;20048;-89
2022/05/31 03:56:46;;;;;;;7.28;2.83;;;14.90;99.90;;;;;;4865883;29;20421;-86
2022/05/31 03:59:12;;;;;;;7.55;3.58;;;15.00;99.90;;;;;;4864824;29;20244;-87
2022/05/31 04:01:38;;;;;;;7.25;4.07;;;14.80;99.90;;;;;;4849361;29;20590;-91
2022/05/31 04:04:03;;;;;;;11.65;6.25;;;15.00;99.90;;;;;;4848981;29;20448;-88
2022/05/31 04:06:30;;;;;;;13.73;8.10;;;15.00;99.90;;;;;;4864697;29;20383;-90
2022/05/31 04:08:56;;;;;;;14.02;6.97;;;15.10;99.90;;;;;;4849056;29;20640;-87
2022/05/31 04:11:31;;;;;;;22.08;11.65;;;15.10;99.90;;;;;;4865787;29;20350;-94
2022/05/31 04:13:57;;;;;;;40.03;18.33;;;14.20;99.90;;;;;;4865842;29;20201;-86
2022/05/31 04:16:23;;;;;;;44.47;21.20;;;15.30;99.90;;;;;;4849395;29;20035;-92
2022/05/31 04:18:49;;;;;;;16.08;5.88;;;14.20;99.90;;;;;;4865604;29;20409;-86
2022/05/31 04:21:19;;;;;;;8.88;2.85;;;15.30;99.90;;;;;;4848780;29;20045;-84
2022/05/31 04:23:58;;;;;;;7.32;3.22;;;15.10;99.90;;;;;;4865082;29;20317;-88
2022/05/31 04:26:44;;;;;;;5.55;2.83;;;15.10;99.90;;;;;;4866792;29;20033;-84
2022/05/31 04:29:09;;;;;;;7.07;2.88;;;15.00;99.90;;;;;;4851317;29;20026;-85
2022/05/31 04:31:38;;;;;;;6.57;3.33;;;14.90;99.90;;;;;;4850379;29;20033;-87
2022/05/31 04:34:05;;;;;;;9.70;4.00;;;14.80;99.90;;;;;;4850188;29;20029;-86
2022/05/31 04:36:31;;;;;;;6.90;3.08;;;14.80;99.90;;;;;;4866043;29;20052;-90
2022/05/31 04:39:00;;;;;;;11.93;3.15;;;14.90;99.90;;;;;;4865376;29;20037;-86
2022/05/31 04:41:28;;;;;;;10.80;3.00;;;15.00;99.90;;;;;;4848664;29;20169;-85
2022/05/31 04:43:56;;;;;;;5.72;2.80;;;15.10;99.90;;;;;;4865280;29;20228;-90
2022/05/31 04:46:24;;;;;;;5.97;2.70;;;16.40;99.90;;;;;;4848720;29;20033;-88
2022/05/31 04:48:52;;;;;;;10.48;3.50;;;15.40;99.90;;;;;;4864776;29;20283;-86
2022/05/31 04:51:17;;;;;;;8.93;3.42;;;15.50;99.90;;;;;;4847868;29;20579;-87
2022/05/31 04:53:44;;;;;;;6.60;3.28;;;15.70;99.90;;;;;;4848145;29;20070;-89
2022/05/31 04:56:13;;;;;;;6.00;2.85;;;15.80;99.90;;;;;;4847794;29;20453;-86
2022/05/31 04:58:39;;;;;;;11.05;3.85;;;16.00;99.90;;;;;;4847686;29;20022;-88
2022/05/31 05:01:08;;;;;;;8.60;2.88;;;16.10;99.90;;;;;;4864752;29;20319;-92
2022/05/31 05:03:35;;;;;;;7.88;2.80;;;16.30;99.90;;;;;;4848786;29;20520;-89
2022/05/31 05:09:52;;;;;;;5.05;2.22;;;17.90;99.10;;;;;;4872396;29;20048;-92
2022/05/31 05:22:39;;;;;;;9.50;2.72;;;19.10;96.30;;;;;;5106955;23;19923;-87
2022/05/31 05:25:07;;;;;;;8.75;3.33;;;19.10;96.90;;;;;;4888086;29;20043;-88
2022/05/31 05:27:32;;;;;;;10.00;4.38;;;19.10;96.70;;;;;;4888073;29;20013;-84
2022/05/31 05:32:42;;;;;;;7.80;3.67;;;18.50;97.80;;;;;;4888030;29;20088;-88
2022/05/31 05:35:08;;;;;;;7.63;3.75;;;18.30;98.50;;;;;;4887340;29;20291;-87
2022/05/31 05:37:34;;;;;;;8.02;3.40;;;18.00;98.70;;;;;;4887040;29;20081;-86
2022/05/31 05:40:00;;;;;;;8.02;3.90;;;17.90;99.00;;;;;;4887445;29;20300;-91
2022/05/31 05:42:26;;;;;;;10.40;3.40;;;17.90;98.70;;;;;;4870860;29;20284;-88
2022/05/31 05:44:52;;;;;;;12.05;4.07;;;17.80;99.00;;;;;;4887292;29;20288;-88
2022/05/31 05:47:17;;;;;;;7.22;2.92;;;17.50;99.70;;;;;;4873739;29;20115;-88
2022/05/31 05:49:43;;;;;;;8.75;3.75;;;17.10;99.90;;;;;;4889442;29;20051;-84
2022/05/31 05:52:16;;;;;;;8.18;3.28;;;17.00;99.90;;;;;;4888964;29;20056;-89
2022/05/31 05:54:41;;;;;;;9.57;3.85;;;16.90;99.90;;;;;;4886279;29;20096;-92
2022/05/31 05:57:07;;;;;;;12.00;4.30;;;17.10;99.90;;;;;;4890300;29;20257;-83
2022/05/31 05:59:33;;;;;;;6.07;2.70;;;17.10;99.90;;;;;;4895335;29;20110;-81
2022/05/31 06:02:09;;;;;;;12.10;4.32;;;17.20;99.90;;;;;;4882205;29;20219;-87
2022/05/31 06:04:47;;;;;;;13.70;4.35;;;17.30;99.90;;;;;;4895383;29;20140;-85
2022/05/31 06:07:30;;;;;;;9.10;4.03;;;17.00;99.90;;;;;;4895496;29;20028;-82
2022/05/31 06:10:14;;;;;;;10.60;4.45;;;16.90;99.90;;;;;;4896950;29;20338;-85
2022/05/31 06:12:45;;;;;;;8.57;4.03;;;16.90;99.90;;;;;;4893696;29;20115;-88
2022/05/31 06:15:19;;;;;;;12.45;5.55;;;16.80;99.90;;;;;;4890117;29;20108;-91
2022/05/31 06:17:48;;;;;;;14.02;5.50;;;16.90;99.90;;;;;;4887273;29;20025;-87
2022/05/31 06:20:15;;;;;;;12.13;5.82;;;16.70;99.90;;;;;;4870804;29;20040;-84
2022/05/31 06:38:57;;;;;;;11.93;6.35;;;17.50;99.90;;;;;;4884561;29;20059;-89
2022/05/31 06:41:23;;;;;;;8.45;3.60;;;17.60;99.90;;;;;;4869571;29;20024;-94
2022/05/31 06:43:49;;;;;;;10.57;4.35;;;17.80;99.90;;;;;;4886414;29;20033;-86
2022/05/31 06:46:16;;;;;;;13.45;7.18;;;18.10;99.50;;;;;;4907366;29;20032;-86
2022/05/31 06:48:44;;;;;;;15.00;6.68;;;17.30;99.90;;;;;;4874563;29;20468;-87
2022/05/31 06:56:48;;;;;;;16.98;8.02;;;17.80;99.90;;;;;;4871340;29;20300;-95
2022/05/31 06:56:49;;;;;;;14.85;6.50;;;14.40;99.90;;;;;;4887315;29;20055;-92
2022/05/31 06:59:15;;;;;;;19.52;9.82;;;16.70;99.90;;;;;;4868741;29;20029;-92
2022/05/31 07:01:49;;;;;;;15.75;8.23;;;16.50;99.90;;;;;;4893445;29;20399;-89
2022/05/31 07:04:15;;;;;;;15.98;7.88;;;16.10;99.90;;;;;;4878855;29;20043;-89
2022/05/31 07:06:44;;;;;;;15.52;9.00;;;15.50;99.90;;;;;;4903990;29;20037;-87
2022/05/31 07:09:10;;;;;;;25.08;10.23;;;15.20;99.90;;;;;;4887441;29;20029;-89
2022/05/31 07:11:36;;;;;;;18.85;9.77;;;15.00;99.90;;;;;;4895843;29;20108;-90
2022/05/31 07:14:02;;;;;;;16.30;8.57;;;14.80;99.90;;;;;;4875386;29;20124;-89
2022/05/31 07:16:30;;;;;;;20.23;8.23;;;14.90;99.90;;;;;;4894314;29;20035;-88
2022/05/31 07:18:56;;;;;;;15.68;8.48;;;15.00;99.90;;;;;;4875206;29;20044;-90
2022/05/31 07:21:23;;;;;;;17.25;7.78;;;15.00;99.90;;;;;;4892786;29;20351;-90
2022/05/31 07:23:49;;;;;;;18.17;8.55;;;15.10;99.90;;;;;;4871821;29;20500;-87
2022/05/31 07:26:17;;;;;;;14.07;6.90;;;14.90;99.90;;;;;;4882993;29;20031;-91
2022/05/31 07:28:50;;;;;;;15.23;8.60;;;15.10;99.90;;;;;;4897982;29;20057;-90
2022/05/31 07:31:16;;;;;;;18.98;8.27;;;15.00;99.90;;;;;;4880336;29;20535;-93
2022/05/31 07:34:00;;;;;;;17.83;9.38;;;14.90;99.90;;;;;;4886318;29;20033;-92
2022/05/31 07:36:41;;;;;;;16.60;8.45;;;15.60;99.90;;;;;;4888622;29;20047;-89
2022/05/31 07:39:13;;;;;;;14.88;7.97;;;15.00;99.90;;;;;;4875826;29;20047;-88
2022/05/31 07:41:43;;;;;;;13.38;8.52;;;15.00;99.90;;;;;;4892029;29;20282;-86
2022/05/31 07:44:11;;;;;;;13.75;6.82;;;15.00;99.90;;;;;;4873419;29;20043;-92
2022/05/31 07:46:39;;;;;;;15.35;7.45;;;15.00;99.90;;;;;;4879188;29;20048;-86
2022/05/31 07:49:06;;;;;;;14.38;8.05;;;15.00;99.90;;;;;;4898450;29;20119;-86
2022/05/31 07:51:32;;;;;;;16.20;8.98;;;15.10;99.90;;;;;;4877140;29;20507;-87
2022/05/31 07:53:58;;;;;;;16.90;8.30;;;15.20;99.90;;;;;;4879745;29;20057;-90
2022/05/31 07:56:33;;;;;;;15.57;7.82;;;15.20;99.90;;;;;;4877127;29;20067;-91
2022/05/31 07:59:06;;;;;;;13.90;7.60;;;16.00;99.90;;;;;;4900589;29;20104;-92
2022/05/31 08:01:33;;;;;;;15.85;8.32;;;15.30;99.90;;;;;;4885409;29;20096;-87
2022/05/31 08:03:59;;;;;;;15.20;8.52;;;15.20;99.90;;;;;;4890428;29;20032;-87
2022/05/31 08:06:42;;;;;;;16.33;9.18;;;15.30;99.90;;;;;;4892413;29;20033;-87
2022/05/31 08:09:08;;;;;;;13.70;8.70;;;15.30;99.90;;;;;;4892759;29;20043;-90
2022/05/31 08:11:37;;;;;;;19.00;9.30;;;15.30;99.90;;;;;;4886662;29;20040;-93
2022/05/31 08:14:03;;;;;;;19.80;10.55;;;15.40;99.90;;;;;;4870439;29;20033;-89
2022/05/31 08:16:29;;;;;;;17.90;9.35;;;15.40;99.90;;;;;;4890866;29;20031;-87
2022/05/31 08:19:03;;;;;;;16.42;8.82;;;15.50;99.90;;;;;;4902362;29;20699;-92
2022/05/31 08:21:31;;;;;;;16.98;9.32;;;15.60;99.90;;;;;;4880202;29;20035;-92
2022/05/31 08:24:23;;;;;;;16.52;9.38;;;15.60;99.90;;;;;;4885151;29;20092;-86
2022/05/31 08:26:51;;;;;;;16.67;7.70;;;15.60;99.90;;;;;;4851005;29;20028;-92
2022/05/31 08:29:20;;;;;;;13.57;7.57;;;16.20;99.90;;;;;;4890467;29;20044;-89
2022/05/31 08:31:46;;;;;;;13.52;6.72;;;15.80;99.90;;;;;;4895964;29;20127;-88
2022/05/31 08:34:19;;;;;;;11.80;6.13;;;15.80;99.90;;;;;;4904459;29;20048;-90
2022/05/31 08:36:51;;;;;;;15.25;8.40;;;15.80;99.90;;;;;;4890688;29;20021;-89
2022/05/31 08:39:17;;;;;;;15.45;7.28;;;16.00;99.90;;;;;;4901008;29;20064;-87
2022/05/31 08:42:00;;;;;;;14.27;6.97;;;16.00;99.90;;;;;;4898214;29;20076;-88
2022/05/31 08:45:08;;;;;;;15.85;7.90;;;15.90;99.90;;;;;;4904443;29;20044;-90
2022/05/31 08:47:44;;;;;;;14.57;8.32;;;15.80;99.90;;;;;;4827837;29;20045;-84
2022/05/31 08:53:30;;;;;;;13.10;8.48;;;15.80;99.90;;;;;;4845864;29;20056;-89
2022/05/31 08:58:55;;;;;;;13.43;7.00;;;15.70;99.90;;;;;;4844998;29;20048;-93
2022/05/31 09:01:27;;;;;;;13.02;7.15;;;15.70;99.90;;;;;;4829991;29;20030;-87
2022/05/31 09:03:59;;;;;;;16.40;7.88;;;13.80;99.90;;;;;;4825676;29;20026;-91
2022/05/31 09:06:33;;;;;;;17.10;8.57;;;15.60;99.90;;;;;;4814809;29;20048;-90
2022/05/31 09:09:21;;;;;;;14.02;7.45;;;15.60;99.90;;;;;;4833520;29;20022;-92
2022/05/31 09:12:15;;;;;;;12.82;7.47;;;16.00;99.90;;;;;;4837215;29;20037;-88
2022/05/31 09:15:02;;;;;;;;;;;14.80;99.90;;;;;;4850631;29;20094;-91
2022/05/31 09:18:15;;;;;;;16.30;7.45;;;18.90;99.90;;;;;;4852566;29;19905;-92
2022/05/31 09:20:58;;;;;;;12.80;5.85;;;15.30;99.90;;;;;;4832641;29;20022;-93
2022/05/31 09:23:40;;;;;;;8.82;4.82;;;16.40;99.90;;;;;;4833012;29;20066;-86
2022/05/31 09:26:08;;;;;;;12.68;5.75;;;17.10;99.90;;;;;;4888085;29;20040;-87
2022/05/31 09:32:20;;;;;;;11.60;4.43;;;15.60;99.90;;;;;;4884692;29;20073;-89
2022/05/31 09:35:31;;;;;;;9.02;4.85;;;15.80;99.90;;;;;;4887968;29;20041;-84
2022/05/31 09:38:34;;;;;;;18.70;7.55;;;16.10;99.90;;;;;;4814988;29;20023;-86
2022/05/31 09:41:24;;;;;;;13.10;6.70;;;16.20;99.90;;;;;;4798439;29;20047;-88
2022/05/31 09:44:28;;;;;;;11.82;5.90;;;16.70;99.90;;;;;;4790028;29;20655;-90
2022/05/31 09:47:14;;;;;;;7.88;4.00;;;20.90;99.90;;;;;;4798863;29;20126;-85
2022/05/31 09:49:49;;;;;;;9.35;3.70;;;17.60;99.90;;;;;;4808783;29;20260;-87
2022/05/31 09:52:33;;;;;;;9.05;3.38;;;18.00;99.90;;;;;;4781300;29;20043;-83
2022/05/31 09:58:36;;;;;;;9.45;3.97;;;19.10;99.90;;;;;;4808792;29;20041;-85
2022/05/31 10:01:27;;;;;;;10.45;5.07;;;19.70;99.90;;;;;;4758538;30;20047;-84
2022/05/31 10:04:32;;;;;;;7.47;3.05;;;19.80;99.90;;;;;;4746291;30;20025;-84
2022/05/31 10:07:08;;;;;;;12.27;3.67;;;20.20;99.90;;;;;;4723210;30;20389;-86
2022/05/31 10:09:44;;;;;;;7.10;3.38;;;20.50;99.90;;;;;;4715956;30;20033;-86
2022/05/31 10:12:13;;;;;;;10.85;4.35;;;20.80;99.90;;;;;;4754989;30;20382;-86
2022/05/31 10:14:45;;;;;;;8.80;2.75;;;21.10;99.90;;;;;;4745900;30;20071;-85
2022/05/31 10:17:44;;;;;;;14.93;6.78;;;21.30;99.90;;;;;;4742659;30;20024;-88
2022/05/31 10:20:18;;;;;;;13.27;6.72;;;21.70;99.50;;;;;;4763170;30;20031;-94
2022/05/31 10:23:10;;;;;;;31.90;16.27;;;22.10;98.10;;;;;;4747736;30;20112;-93
2022/05/31 10:26:03;;;;;;;16.77;8.90;;;22.40;95.70;;;;;;4760070;30;20105;-91
2022/05/31 10:28:49;;;;;;;40.35;21.20;;;22.70;96.00;;;;;;4771115;30;20560;-85
2022/05/31 10:31:42;;;;;;;21.20;11.55;;;22.90;95.70;;;;;;4777509;30;20035;-88
2022/05/31 10:34:32;;;;;;;20.70;10.45;;;23.00;95.50;;;;;;4762009;30;20039;-83
2022/05/31 10:37:00;;;;;;;13.27;6.65;;;23.70;93.10;;;;;;4783013;29;20046;-86
2022/05/31 10:40:13;;;;;;;19.77;11.15;;;23.50;93.30;;;;;;4798667;29;20667;-91
2022/05/31 10:45:23;;;;;;;5.55;2.00;;;24.20;92.50;;;;;;4921969;29;20063;-84
2022/05/31 10:47:49;;;;;;;3.97;2.03;;;24.00;89.80;;;;;;4906995;29;20020;-87
2022/05/31 10:50:14;;;;;;;3.20;1.58;;;24.60;88.90;;;;;;4922985;29;20364;-83
2022/05/31 10:52:47;;;;;;;4.18;1.75;;;24.70;90.70;;;;;;4924534;29;20368;-83
2022/05/31 10:55:22;;;;;;;5.75;1.98;;;23.90;90.80;;;;;;4914144;29;20625;-86
2022/05/31 10:58:14;;;;;;;4.07;1.70;;;25.40;89.70;;;;;;4914612;29;20032;-85
2022/05/31 11:00:47;;;;;;;3.70;1.33;;;25.80;85.00;;;;;;4900964;29;20133;-86
2022/05/31 11:04:06;;;;;;;3.22;1.55;;;26.10;87.30;;;;;;4914026;29;20098;-89
2022/05/31 11:06:57;;;;;;;4.15;1.75;;;26.60;84.00;;;;;;4910673;29;20056;-87
2022/05/31 11:13:09;;;;;;;5.85;1.83;;;27.20;75.50;;;;;;4905926;29;20059;-87
2022/05/31 11:16:00;;;;;;;5.25;2.33;;;28.20;76.70;;;;;;4995931;23;20056;-88
2022/05/31 11:18:50;;;;;;;6.05;2.35;;;27.60;76.50;;;;;;4869905;29;20033;-89
2022/05/31 11:21:45;;;;;;;4.45;1.90;;;27.90;75.40;;;;;;4868988;29;20051;-89
2022/05/31 11:24:24;;;;;;;4.95;1.92;;;28.40;75.60;;;;;;4812809;29;20110;-89
2022/05/31 11:27:36;;;;;;;7.93;2.33;;;28.80;75.40;;;;;;4812447;29;20121;-91
2022/05/31 11:30:06;;;;;;;5.32;1.67;;;29.10;74.30;;;;;;4780842;29;20182;-92
2022/05/31 11:33:06;;;;;;;5.93;2.47;;;29.50;71.70;;;;;;4811871;29;20041;-89
2022/05/31 11:35:50;;;;;;;5.55;2.05;;;29.80;69.20;;;;;;4827171;29;20680;-88
2022/05/31 11:38:25;;;;;;;6.13;2.30;;;29.90;66.70;;;;;;4826771;29;20042;-90
2022/05/31 11:41:05;;;;;;;7.13;2.70;;;29.90;66.80;;;;;;4826337;29;20034;-85
2022/05/31 11:43:42;;;;;;;5.47;1.98;;;30.10;62.90;;;;;;4826184;29;20399;-86
2022/05/31 11:46:40;;;;;;;5.78;1.67;;;30.00;62.80;;;;;;4810434;29;20038;-87
2022/05/31 11:51:37;;;;;;;5.55;1.65;;;29.10;63.30;;;;;;4907117;23;20119;-89
2022/05/31 11:54:37;;;;;;;7.60;2.20;;;28.70;63.70;;;;;;4885879;29;20031;-85
2022/05/31 11:57:37;;;;;;;8.98;1.70;;;28.30;65.50;;;;;;4885388;29;20039;-85
2022/05/31 12:00:11;;;;;;;5.00;2.15;;;28.20;66.40;;;;;;4902702;29;20024;-84
2022/05/31 12:02:45;;;;;;;6.18;2.38;;;27.90;67.00;;;;;;4863839;23;20092;-86
2022/05/31 12:05:29;;;;;;;6.70;1.98;;;27.50;69.60;;;;;;4848470;29;20680;-84
2022/05/31 12:08:23;;;;;;;5.00;2.05;;;27.00;69.00;;;;;;4848117;29;20037;-86
2022/05/31 12:10:53;;;;;;;3.55;1.90;;;26.40;71.60;;;;;;4865510;29;20032;-88
2022/05/31 12:13:20;;;;;;;8.10;2.50;;;25.90;73.70;;;;;;4865864;29;20032;-85
2022/05/31 12:16:04;;;;;;;4.90;2.00;;;25.60;75.30;;;;;;4849135;29;20092;-88
2022/05/31 12:19:06;;;;;;;6.50;2.60;;;25.50;75.40;;;;;;4866353;29;20036;-92
2022/05/31 12:21:42;;;;;;;6.50;2.15;;;24.80;74.50;;;;;;4868425;29;20029;-89
2022/05/31 12:24:31;;;;;;;7.05;2.30;;;25.30;75.20;;;;;;4872499;29;20092;-89
2022/05/31 12:27:43;;;;;;;3.80;1.67;;;24.70;76.20;;;;;;4867697;29;20049;-85
2022/05/31 12:34:33;;;;;;;6.07;2.22;;;24.30;78.00;;;;;;4905334;29;20051;-88
2022/05/31 12:37:08;;;;;;;6.03;1.90;;;24.40;80.50;;;;;;4852631;29;20736;-86
2022/05/31 12:39:36;;;;;;;7.90;2.35;;;23.40;81.10;;;;;;4903447;29;20586;-87
2022/05/31 12:42:14;;;;;;;5.43;2.45;;;23.90;83.20;;;;;;4903141;29;20717;-84
2022/05/31 12:44:46;;;;;;;6.15;2.45;;;24.00;85.00;;;;;;4902464;29;20040;-84
2022/05/31 12:47:43;;;;;;;6.13;2.40;;;24.20;87.30;;;;;;4902361;29;20047;-87
2022/05/31 12:50:12;;;;;;;5.50;2.40;;;22.80;88.40;;;;;;4881586;29;20444;-86
2022/05/31 12:55:22;;;;;;;5.03;2.13;;;24.90;90.60;;;;;;4902869;29;20024;-86
2022/05/31 12:58:35;;;;;;;5.60;1.95;;;25.70;91.10;;;;;;4885874;29;20032;-84
2022/05/31 13:01:26;;;;;;;4.13;1.90;;;26.20;86.10;;;;;;4885522;29;20234;-85
2022/05/31 13:04:28;;;;;;;4.35;2.20;;;29.50;83.40;;;;;;4885705;29;20036;-86
2022/05/31 13:07:10;;;;;;;4.88;2.17;;;29.80;74.30;;;;;;4902061;29;20055;-87
2022/05/31 13:09:45;;;;;;;39.33;13.13;;;30.40;67.30;;;;;;4885589;29;20111;-88
2022/05/31 13:20:56;;;;;;;8.70;2.90;;;31.10;63.80;;;;;;4883888;29;20100;-86
2022/05/31 13:23:35;;;;;;;7.68;3.00;;;30.80;64.50;;;;;;4883006;29;20753;-87
2022/05/31 13:26:16;;;;;;;9.23;3.60;;;29.80;66.40;;;;;;4883307;29;20108;-85
2022/05/31 13:29:13;;;;;;;11.77;5.10;;;29.20;69.00;;;;;;4886256;29;20024;-90
2022/05/31 13:31:51;;;;;;;9.07;3.30;;;29.00;69.90;;;;;;4869248;29;20056;-89
2022/05/31 13:34:30;;;;;;;16.63;7.82;;;29.50;68.60;;;;;;4887353;29;20281;-87
2022/05/31 13:36:58;;;;;;;10.20;3.72;;;29.80;66.50;;;;;;4871132;29;20119;-89
2022/05/31 13:39:26;;;;;;;6.63;2.30;;;29.90;64.80;;;;;;4870206;29;20033;-84
2022/05/31 13:41:56;;;;;;;6.95;2.53;;;29.80;64.20;;;;;;4887044;29;20025;-88
2022/05/31 13:44:41;;;;;;;6.78;2.28;;;29.50;64.40;;;;;;4886647;29;20031;-85
2022/05/31 13:47:11;;;;;;;8.15;2.08;;;29.40;63.60;;;;;;4886658;29;20112;-83
2022/05/31 13:49:39;;;;;;;6.10;2.15;;;29.50;63.80;;;;;;4870012;29;20035;-85
2022/05/31 13:52:25;;;;;;;5.05;2.83;;;29.60;63.60;;;;;;4886826;29;20059;-83
2022/05/31 13:54:54;;;;;;;5.90;1.77;;;29.40;61.60;;;;;;4870342;29;20033;-87
2022/05/31 13:57:25;;;;;;;4.85;1.50;;;31.10;61.50;;;;;;4870645;29;20017;-87
2022/05/31 13:59:55;;;;;;;6.38;2.10;;;32.20;59.20;;;;;;4889192;29;20116;-86
2022/05/31 14:03:05;;;;;;;6.35;2.10;;;32.40;57.00;;;;;;4896516;29;20032;-86
2022/05/31 14:05:56;;;;;;;6.20;1.85;;;32.90;56.60;;;;;;4896899;29;20567;-91
2022/05/31 14:08:54;;;;;;;4.30;1.90;;;32.60;57.30;;;;;;4906763;29;20031;-86
2022/05/31 14:11:36;;;;;;;5.05;1.95;;;32.90;57.40;;;;;;4882677;29;20028;-87
2022/05/31 14:14:13;;;;;;;6.85;1.85;;;34.20;56.70;;;;;;4897323;29;20024;-84
2022/05/31 14:16:42;;;;;;;5.35;1.92;;;33.90;54.70;;;;;;4859674;29;20049;-87
2022/05/31 14:19:24;;;;;;;7.38;2.22;;;34.50;54.00;;;;;;4892570;29;20156;-89
2022/05/31 14:21:59;;;;;;;4.20;1.80;;;35.00;53.20;;;;;;4871814;29;20088;-91
2022/05/31 14:24:30;;;;;;;9.55;2.15;;;34.90;52.40;;;;;;4887757;29;20036;-87
2022/05/31 14:26:59;;;;;;;5.55;1.95;;;34.40;52.60;;;;;;4887598;29;20053;-85
2022/05/31 14:29:31;;;;;;;5.80;2.17;;;34.20;51.40;;;;;;4886205;29;20468;-88
2022/05/31 14:32:17;;;;;;;;;;;34.60;53.10;;;;;;4870157;29;20546;-82
2022/05/31 14:34:52;;;;;;;8.88;4.22;;;32.70;53.10;;;;;;4885457;29;20055;-86
2022/05/31 14:37:41;;;;;;;10.07;4.20;;;32.10;55.00;;;;;;4886183;29;20021;-83
2022/05/31 14:40:33;;;;;;;7.65;2.80;;;31.50;56.50;;;;;;4886893;29;20128;-87
2022/05/31 14:43:14;;;;;;;6.60;2.65;;;30.50;57.70;;;;;;4830810;29;20034;-87
2022/05/31 14:45:46;;;;;;;11.15;2.60;;;30.10;59.30;;;;;;4831426;29;20081;-87
2022/05/31 14:48:31;;;;;;;6.50;2.88;;;29.70;59.30;;;;;;4828951;29;20071;-90
2022/05/31 14:51:00;;;;;;;9.02;2.85;;;29.00;60.60;;;;;;4813925;29;20034;-85
2022/05/31 14:53:37;;;;;;;10.43;2.80;;;28.30;63.70;;;;;;4813078;29;20037;-91
2022/05/31 14:56:04;;;;;;;7.32;2.53;;;28.00;64.70;;;;;;4830157;29;20026;-90
2022/05/31 14:58:43;;;;;;;10.35;3.03;;;;;;;;;;4832991;29;20029;-85
2022/05/31 15:01:25;;;;;;;10.23;2.67;;;26.90;67.10;;;;;;4835976;29;20053;-88
2022/05/31 15:04:14;;;;;;;7.35;2.38;;;26.80;67.90;;;;;;4838172;29;20075;-85
2022/05/31 15:06:42;;;;;;;7.15;2.47;;;26.60;69.20;;;;;;4822162;29;20297;-89
2022/05/31 15:09:19;;;;;;;6.57;2.28;;;25.70;71.70;;;;;;4823826;29;20026;-92
2022/05/31 15:20:13;;;;;;;9.30;3.28;;;24.70;84.00;;;;;;4863722;29;20040;-85
2022/05/31 15:22:40;;;;;;;10.30;3.13;;;24.50;87.50;;;;;;4871547;29;20906;-93
2022/05/31 15:25:23;;;;;;;9.85;3.67;;;24.20;90.20;;;;;;4888654;29;20071;-89
2022/05/31 15:27:49;;;;;;;7.78;2.78;;;24.00;91.70;;;;;;4871388;29;20039;-89
2022/05/31 15:30:21;;;;;;;18.17;4.25;;;23.80;93.30;;;;;;4891844;29;20523;-96
2022/05/31 15:32:47;;;;;;;13.35;4.13;;;23.50;94.30;;;;;;4875136;29;20091;-91
2022/05/31 15:35:20;;;;;;;7.32;3.28;;;22.40;94.00;;;;;;4890152;29;20037;-93
2022/05/31 15:37:50;;;;;;;6.22;2.75;;;22.30;94.20;;;;;;4873397;29;20025;-92